createdAt,value
2018-07-28T00:01:55.875Z,30.50
2018-07-28T00:04:24.032Z,30.50
2018-07-28T00:06:52.300Z,30.50
2018-07-28T00:09:20.461Z,30.40
2018-07-28T00:11:48.612Z,30.50
2018-07-28T00:14:16.819Z,30.40
2018-07-28T00:16:45.029Z,30.40
2018-07-28T00:19:13.176Z,30.40
2018-07-28T00:21:41.334Z,30.40
2018-07-28T00:24:09.507Z,30.30
2018-07-28T00:26:37.691Z,30.30
2018-07-28T00:29:05.920Z,30.20
2018-07-28T00:31:34.664Z,30.10
2018-07-28T00:34:02.851Z,30.10
2018-07-28T00:36:31.061Z,30.10
2018-07-28T00:38:59.250Z,30.00
2018-07-28T00:41:27.416Z,30.00
2018-07-28T00:43:55.591Z,30.10
2018-07-28T00:46:23.755Z,30.10
2018-07-28T00:48:52.844Z,30.10
2018-07-28T00:51:21.029Z,30.10
2018-07-28T00:53:49.208Z,30.10
2018-07-28T00:58:45.397Z,30.10
2018-07-28T01:01:13.519Z,30.00
2018-07-28T01:03:41.691Z,30.00
2018-07-28T01:06:09.902Z,30.00
2018-07-28T01:08:38.031Z,30.00
2018-07-28T01:11:06.240Z,29.90
2018-07-28T01:13:34.392Z,30.00
2018-07-28T01:16:02.504Z,30.00
2018-07-28T01:18:30.631Z,30.00
2018-07-28T01:20:58.770Z,30.00
2018-07-28T01:23:26.918Z,30.00
2018-07-28T01:25:55.150Z,29.90
2018-07-28T01:28:23.285Z,29.80
2018-07-28T01:30:51.400Z,29.90
2018-07-28T01:33:19.648Z,29.90
2018-07-28T01:35:47.778Z,29.80
2018-07-28T01:38:15.905Z,29.70
2018-07-28T01:40:44.403Z,29.70
2018-07-28T01:43:12.785Z,29.60
2018-07-28T01:45:40.981Z,29.50
2018-07-28T01:48:09.180Z,29.50
2018-07-28T01:50:37.331Z,29.50
2018-07-28T01:53:05.765Z,29.40
2018-07-28T01:55:33.935Z,29.40
2018-07-28T01:58:02.491Z,29.40
2018-07-28T02:00:30.629Z,29.40
2018-07-28T02:02:59.096Z,29.30
2018-07-28T02:05:27.237Z,29.20
2018-07-28T02:07:55.820Z,29.20
2018-07-28T02:10:23.971Z,29.20
2018-07-28T02:12:52.213Z,29.10
2018-07-28T02:15:20.342Z,29.20
2018-07-28T02:17:48.503Z,29.00
2018-07-28T02:20:16.681Z,29.00
2018-07-28T02:22:44.811Z,29.00
2018-07-28T02:25:19.770Z,29.00
2018-07-28T02:27:47.895Z,29.00
2018-07-28T02:30:16.016Z,28.90
2018-07-28T02:37:40.645Z,28.70
2018-07-28T02:40:08.826Z,28.70
2018-07-28T02:42:37.024Z,28.70
2018-07-28T02:45:06.031Z,28.70
2018-07-28T02:47:34.165Z,28.50
2018-07-28T02:50:02.303Z,28.50
2018-07-28T02:52:31.250Z,28.50
2018-07-28T02:54:59.472Z,28.50
2018-07-28T02:57:27.623Z,28.50
2018-07-28T02:59:55.759Z,28.50
2018-07-28T03:02:23.985Z,28.50
2018-07-28T03:04:52.166Z,28.50
2018-07-28T03:07:20.472Z,28.50
2018-07-28T03:09:48.628Z,28.40
2018-07-28T03:12:16.780Z,28.20
2018-07-28T03:14:45.025Z,28.10
2018-07-28T03:22:08.981Z,28.20
2018-07-28T03:32:01.246Z,28.30
2018-07-28T03:36:57.357Z,28.30
2018-07-28T03:39:25.639Z,28.20
2018-07-28T03:46:49.953Z,28.20
2018-07-28T03:49:18.273Z,28.30
2018-07-28T03:51:46.393Z,28.30
2018-07-28T03:54:14.564Z,28.30
2018-07-28T03:56:42.861Z,28.30
2018-07-28T03:59:11.044Z,28.20
2018-07-28T04:01:39.205Z,27.80
2018-07-28T04:04:07.398Z,27.80
2018-07-28T04:06:35.568Z,27.80
2018-07-28T04:09:05.907Z,28.00
2018-07-28T04:11:34.052Z,28.30
2018-07-28T04:14:02.186Z,28.50
2018-07-28T04:16:30.315Z,28.70
2018-07-28T04:18:58.472Z,28.70
2018-07-28T04:23:54.528Z,28.80
2018-07-28T04:26:22.675Z,28.80
2018-07-28T04:28:50.814Z,28.80
2018-07-28T04:31:19.004Z,28.20
2018-07-28T04:33:47.275Z,28.50
2018-07-28T04:38:43.312Z,28.20
2018-07-28T04:41:11.440Z,28.40
2018-07-28T04:43:39.632Z,28.30
2018-07-28T04:46:07.784Z,28.50
2018-07-28T04:48:35.933Z,28.50
2018-07-28T04:51:04.064Z,28.70
2018-07-28T04:53:36.070Z,29.00
2018-07-28T04:56:04.551Z,29.00
2018-07-28T05:01:00.635Z,29.20
2018-07-28T05:03:28.814Z,29.10
2018-07-28T05:05:56.980Z,28.90
2018-07-28T05:08:25.249Z,28.80
2018-07-28T05:10:53.398Z,29.20
2018-07-28T05:13:21.607Z,29.20
2018-07-28T05:15:49.935Z,29.10
2018-07-28T05:20:45.974Z,29.40
2018-07-28T05:23:14.816Z,29.10
2018-07-28T05:25:43.038Z,29.20
2018-07-28T05:28:11.265Z,29.20
2018-07-28T05:30:39.484Z,29.20
2018-07-28T05:33:07.627Z,29.30
2018-07-28T05:35:35.761Z,29.50
2018-07-28T05:38:03.946Z,29.30
2018-07-28T05:40:32.189Z,29.30
2018-07-28T05:43:00.396Z,29.60
2018-07-28T05:45:28.527Z,29.60
2018-07-28T05:50:24.609Z,29.40
2018-07-28T05:52:52.785Z,29.50
2018-07-28T05:55:20.988Z,29.60
2018-07-28T05:57:49.132Z,29.50
2018-07-28T06:00:17.336Z,29.30
2018-07-28T06:02:45.517Z,29.40
2018-07-28T06:05:13.648Z,29.10
2018-07-28T06:07:41.807Z,29.40
2018-07-28T06:10:09.963Z,29.40
2018-07-28T06:12:38.112Z,29.70
2018-07-28T06:15:06.536Z,29.50
2018-07-28T06:17:34.675Z,29.50
2018-07-28T06:20:02.880Z,29.70
2018-07-28T06:22:31.903Z,30.20
2018-07-28T06:25:00.149Z,30.30
2018-07-28T06:27:28.286Z,30.70
2018-07-28T06:29:56.411Z,31.00
2018-07-28T06:32:25.465Z,31.00
2018-07-28T06:34:53.634Z,31.20
2018-07-28T06:37:21.781Z,31.20
2018-07-28T06:39:50.094Z,30.90
2018-07-28T06:42:18.203Z,30.70
2018-07-28T06:44:46.350Z,31.10
2018-07-28T06:49:42.434Z,30.80
2018-07-28T06:52:10.584Z,30.80
2018-07-28T06:59:34.549Z,29.80
2018-07-28T07:04:31.618Z,29.50
2018-07-28T07:07:00.767Z,29.40
2018-07-28T07:09:28.919Z,29.80
2018-07-28T07:11:57.626Z,29.70
2018-07-28T07:16:53.805Z,28.90
2018-07-28T07:19:22.019Z,28.70
2018-07-28T07:21:50.220Z,28.80
2018-07-28T07:26:47.018Z,28.60
2018-07-28T07:29:15.805Z,28.70
2018-07-28T07:31:43.926Z,28.70
2018-07-28T07:44:06.071Z,29.50
2018-07-28T07:46:34.271Z,29.00
2018-07-28T07:53:58.209Z,29.10
2018-07-28T07:56:26.346Z,29.50
2018-07-28T08:01:22.455Z,30.00
2018-07-28T08:03:50.614Z,30.10
2018-07-28T08:08:46.751Z,29.50
2018-07-28T08:18:38.744Z,29.10
2018-07-28T08:21:06.927Z,29.00
2018-07-28T08:28:30.923Z,28.90
2018-07-28T08:33:27.045Z,28.70
2018-07-28T08:35:55.193Z,28.60
2018-07-28T08:38:23.347Z,28.30
2018-07-28T08:40:52.511Z,28.60
2018-07-28T08:50:44.599Z,29.60
2018-07-28T08:53:12.763Z,29.40
2018-07-28T08:55:41.457Z,29.40
2018-07-28T08:58:09.636Z,29.50
2018-07-28T09:00:37.868Z,29.30
2018-07-28T09:05:33.947Z,28.50
2018-07-28T09:10:30.037Z,28.30
2018-07-28T09:15:26.112Z,28.50
2018-07-28T09:17:54.289Z,28.40
2018-07-28T09:25:18.219Z,28.80
2018-07-28T09:30:14.352Z,28.60
2018-07-28T09:32:42.558Z,28.70
2018-07-28T09:40:06.720Z,28.60
2018-07-28T09:42:34.834Z,28.70
2018-07-28T09:45:02.998Z,28.60
2018-07-28T09:52:27.049Z,28.70
2018-07-28T09:54:55.296Z,28.60
2018-07-28T09:59:51.551Z,28.60
2018-07-28T10:02:19.683Z,28.40
2018-07-28T10:09:43.747Z,29.20
2018-07-28T10:12:11.854Z,29.20
2018-07-28T10:14:40.040Z,29.80
2018-07-28T10:17:08.199Z,29.80
2018-07-28T10:19:36.343Z,28.70
2018-07-28T10:22:04.457Z,29.30
2018-07-28T10:24:32.624Z,29.60
2018-07-28T10:27:00.826Z,29.50
2018-07-28T10:29:29.048Z,29.70
2018-07-28T10:31:57.228Z,29.60
2018-07-28T10:34:25.417Z,29.40
2018-07-28T10:39:21.521Z,29.50
2018-07-28T10:41:49.636Z,29.50
2018-07-28T10:44:17.775Z,29.50
2018-07-28T10:46:45.899Z,29.10
2018-07-28T10:49:14.085Z,29.20
2018-07-28T10:51:42.312Z,29.50
2018-07-28T10:54:10.476Z,29.90
2018-07-28T10:56:38.701Z,30.10
2018-07-28T10:59:06.862Z,30.10
2018-07-28T11:01:35.033Z,30.10
2018-07-28T11:04:03.243Z,29.40
2018-07-28T11:06:31.452Z,29.50
2018-07-28T11:08:59.656Z,29.50
2018-07-28T11:11:28.100Z,29.90
2018-07-28T11:13:57.100Z,30.30
2018-07-28T11:16:25.394Z,31.10
2018-07-28T11:18:53.641Z,31.90
2018-07-28T11:21:21.820Z,31.80
2018-07-28T11:23:57.494Z,33.50
2018-07-28T11:28:54.251Z,35.40
2018-07-28T11:31:34.628Z,34.80
2018-07-28T11:34:14.350Z,34.80
2018-07-28T11:38:01.013Z,34.80
2018-07-28T11:44:13.761Z,33.50
2018-07-28T11:54:06.073Z,33.00
2018-07-28T11:56:34.226Z,33.90
2018-07-28T11:59:02.364Z,34.20
2018-07-28T12:03:59.327Z,35.80
2018-07-28T12:06:27.466Z,36.70
2018-07-28T12:13:51.767Z,40.10
2018-07-28T12:16:19.909Z,41.40
2018-07-28T12:18:48.040Z,41.70
2018-07-28T12:23:44.255Z,42.50
2018-07-28T12:28:40.287Z,43.90
2018-07-28T12:31:08.451Z,43.30
2018-07-28T12:33:36.602Z,42.80
2018-07-28T12:38:33.199Z,39.30
2018-07-28T12:41:01.369Z,39.30
2018-07-28T12:43:29.521Z,37.50
2018-07-28T12:45:57.651Z,37.80
2018-07-28T12:48:25.760Z,37.80
2018-07-28T12:50:54.006Z,36.30
2018-07-28T12:53:22.195Z,36.30
2018-07-28T12:55:50.355Z,35.50
2018-07-28T12:58:18.473Z,35.20
2018-07-28T13:00:46.632Z,35.30
2018-07-28T13:03:14.777Z,36.50
2018-07-28T13:05:42.975Z,37.10
2018-07-28T13:08:11.132Z,38.10
2018-07-28T13:10:39.297Z,38.10
2018-07-28T13:13:07.484Z,38.70
2018-07-28T13:15:35.631Z,39.70
2018-07-28T13:18:03.833Z,40.90
2018-07-28T13:20:32.047Z,42.30
2018-07-28T13:23:00.230Z,42.40
2018-07-28T13:25:28.379Z,42.30
2018-07-28T13:27:56.520Z,42.20
2018-07-28T13:30:24.735Z,41.60
2018-07-28T13:32:52.943Z,39.20
2018-07-28T13:35:21.088Z,38.80
2018-07-28T13:37:49.225Z,39.30
2018-07-28T13:40:17.376Z,39.00
2018-07-28T13:42:45.547Z,38.30
2018-07-28T13:45:13.696Z,38.40
2018-07-28T13:47:42.115Z,37.30
2018-07-28T13:50:10.298Z,37.30
2018-07-28T13:52:38.504Z,37.60
2018-07-28T13:57:34.567Z,37.50
2018-07-28T14:00:02.751Z,37.20
2018-07-28T14:02:30.978Z,37.70
2018-07-28T14:04:59.128Z,37.50
2018-07-28T14:07:27.331Z,36.90
2018-07-28T14:09:55.480Z,37.60
2018-07-28T14:12:23.765Z,37.40
2018-07-28T14:14:51.877Z,36.90
2018-07-28T14:19:47.991Z,36.30
2018-07-28T14:22:16.203Z,36.80
2018-07-28T14:27:12.317Z,35.20
2018-07-28T14:29:40.443Z,35.00
2018-07-28T14:34:37.037Z,34.50
2018-07-28T14:37:05.296Z,34.00
2018-07-28T14:46:57.192Z,34.20
2018-07-28T14:49:25.378Z,34.60
2018-07-28T14:59:18.459Z,35.00
2018-07-28T15:01:46.624Z,35.30
2018-07-28T15:14:07.607Z,36.30
2018-07-28T15:16:35.740Z,36.10
2018-07-28T15:21:31.954Z,33.50
2018-07-28T15:26:28.189Z,32.70
2018-07-28T15:41:16.168Z,32.60
2018-07-28T15:43:44.360Z,32.30
2018-07-28T15:48:40.438Z,31.90
2018-07-28T15:53:36.767Z,31.30
2018-07-28T15:58:33.305Z,30.70
2018-07-28T16:01:01.515Z,31.10
2018-07-28T16:05:57.699Z,31.40
2018-07-28T16:08:25.923Z,31.70
2018-07-28T16:10:54.304Z,31.80
2018-07-28T16:18:18.620Z,31.80
2018-07-28T16:35:34.588Z,31.40
2018-07-28T16:40:30.691Z,30.90
2018-07-28T16:42:58.871Z,30.80
2018-07-28T16:47:54.947Z,31.30
2018-07-28T16:50:23.120Z,31.60
2018-07-28T16:52:51.283Z,31.50
2018-07-28T16:57:47.356Z,31.60
2018-07-28T17:07:39.407Z,31.90
2018-07-28T17:12:35.509Z,32.10
2018-07-28T17:15:03.663Z,31.60
2018-07-28T17:19:59.922Z,31.30
2018-07-28T17:22:28.197Z,31.10
2018-07-28T17:24:56.399Z,31.00
2018-07-28T17:27:24.676Z,30.90
2018-07-28T17:32:20.867Z,30.80
2018-07-28T17:39:45.548Z,30.20
2018-07-28T17:42:13.700Z,30.10
2018-07-28T17:44:42.495Z,30.00
2018-07-28T17:49:38.646Z,29.10
2018-07-28T17:52:06.899Z,29.10
2018-07-28T17:54:35.044Z,29.20
2018-07-28T17:57:03.253Z,29.30
2018-07-28T17:59:31.432Z,29.10
2018-07-28T18:01:59.539Z,29.20
2018-07-28T18:09:23.684Z,29.40
2018-07-28T18:11:51.871Z,29.40
2018-07-28T18:16:48.670Z,31.30
2018-07-28T18:19:16.831Z,29.50
2018-07-28T18:21:45.134Z,29.60
2018-07-28T18:24:13.305Z,29.60
2018-07-28T18:29:10.309Z,29.40
2018-07-28T18:31:38.575Z,29.30
2018-07-28T18:34:06.787Z,29.20
2018-07-28T18:36:35.041Z,29.20
2018-07-28T18:39:04.526Z,29.10
2018-07-28T18:46:28.511Z,29.00
2018-07-28T18:48:56.769Z,29.00
2018-07-28T18:51:24.900Z,28.90
2018-07-28T18:53:53.028Z,28.90
2018-07-28T18:56:21.212Z,28.80
2018-07-28T18:58:49.653Z,28.10
2018-07-28T19:01:17.792Z,27.80
2018-07-28T19:03:46.023Z,27.90
2018-07-28T19:06:14.411Z,28.00
2018-07-28T19:08:42.838Z,28.00
2018-07-28T19:11:10.984Z,27.90
2018-07-28T19:13:44.678Z,27.90
2018-07-28T19:18:46.323Z,27.90
2018-07-28T19:21:14.486Z,27.90
2018-07-28T19:23:48.474Z,27.90
2018-07-28T19:28:50.234Z,27.60
2018-07-28T19:31:18.364Z,27.60
2018-07-28T19:33:46.796Z,27.50
2018-07-28T19:36:20.584Z,27.60
2018-07-28T19:38:48.772Z,27.60
2018-07-28T19:46:12.787Z,27.50
2018-07-28T19:48:40.923Z,27.30
2018-07-28T19:51:09.162Z,27.30
2018-07-28T19:53:37.377Z,27.30
2018-07-28T19:56:05.684Z,27.20
2018-07-28T19:58:33.888Z,27.20
2018-07-28T20:01:02.124Z,27.00
2018-07-28T20:05:58.214Z,26.70
2018-07-28T20:08:26.600Z,26.40
2018-07-28T20:10:54.799Z,26.50
2018-07-28T20:13:22.944Z,26.70
2018-07-28T20:15:51.091Z,26.70
2018-07-28T20:18:19.424Z,26.70
2018-07-28T20:20:47.659Z,26.70
2018-07-28T20:23:15.809Z,26.70
2018-07-28T20:25:43.968Z,26.60
2018-07-28T20:28:12.099Z,26.60
2018-07-28T20:30:40.223Z,26.60
2018-07-28T20:33:08.379Z,26.60
2018-07-28T20:35:36.604Z,26.60
2018-07-28T20:40:32.723Z,26.60
2018-07-28T20:43:00.818Z,26.50
2018-07-28T20:45:28.949Z,26.50
2018-07-28T20:47:57.073Z,26.40
2018-07-28T20:50:25.310Z,26.40
2018-07-28T20:52:53.521Z,26.50
2018-07-28T20:55:21.708Z,26.50
2018-07-28T20:57:49.855Z,26.40
2018-07-28T21:00:18.083Z,26.40
2018-07-28T21:02:46.178Z,26.40
2018-07-28T21:05:14.330Z,26.30
2018-07-28T21:07:42.891Z,26.30
2018-07-28T21:10:11.085Z,26.40
2018-07-28T21:12:41.318Z,26.40
2018-07-28T21:15:09.529Z,26.30
2018-07-28T21:17:37.676Z,26.20
2018-07-28T21:20:06.819Z,26.10
2018-07-28T21:22:35.128Z,26.10
2018-07-28T21:25:03.267Z,26.00
2018-07-28T21:27:31.590Z,25.90
2018-07-28T21:29:59.735Z,25.90
2018-07-28T21:32:27.899Z,25.80
2018-07-28T21:34:56.071Z,25.90
2018-07-28T21:37:24.199Z,25.90
2018-07-28T21:39:52.389Z,25.90
2018-07-28T21:42:20.565Z,25.90
2018-07-28T21:44:48.809Z,25.90
2018-07-28T21:47:16.998Z,26.00
2018-07-28T21:49:45.195Z,26.00
2018-07-28T21:52:13.524Z,26.10
2018-07-28T21:54:41.651Z,26.00
2018-07-28T21:57:09.892Z,26.00
2018-07-28T21:59:38.046Z,26.10
2018-07-28T22:02:06.429Z,26.00
2018-07-28T22:04:36.585Z,25.90
2018-07-28T22:07:04.695Z,25.80
2018-07-28T22:09:32.853Z,25.80
2018-07-28T22:12:00.979Z,25.90
2018-07-28T22:14:29.122Z,25.90
2018-07-28T22:16:57.299Z,25.80
2018-07-28T22:19:25.412Z,25.80
2018-07-28T22:21:53.551Z,25.70
2018-07-28T22:24:22.518Z,25.70
2018-07-28T22:26:50.763Z,25.70
2018-07-28T22:29:18.915Z,25.70
2018-07-28T22:31:47.033Z,25.70
2018-07-28T22:34:15.201Z,25.70
2018-07-28T22:36:43.341Z,25.80
2018-07-28T22:39:12.028Z,25.90
2018-07-28T22:41:40.414Z,25.90
2018-07-28T22:44:08.648Z,26.00
2018-07-28T22:46:36.791Z,25.90
2018-07-28T22:49:04.940Z,26.00
2018-07-28T22:51:33.113Z,25.90
2018-07-28T22:54:01.278Z,25.90
2018-07-28T22:56:29.447Z,26.00
2018-07-28T22:58:57.584Z,26.00
2018-07-28T23:01:25.725Z,26.00
2018-07-28T23:03:53.882Z,26.10
2018-07-28T23:06:22.031Z,26.00
2018-07-28T23:08:50.217Z,26.00
2018-07-28T23:11:18.378Z,26.00
2018-07-28T23:13:46.537Z,26.10
2018-07-28T23:16:14.691Z,26.10
2018-07-28T23:18:43.277Z,26.00
2018-07-28T23:21:11.419Z,26.10
2018-07-28T23:23:39.588Z,26.00
2018-07-28T23:26:07.799Z,26.00
2018-07-28T23:28:35.995Z,26.00
2018-07-28T23:31:04.241Z,25.90
2018-07-28T23:33:32.411Z,25.90
2018-07-28T23:36:00.583Z,25.90
2018-07-28T23:38:28.797Z,25.90
2018-07-28T23:40:56.959Z,26.00
2018-07-28T23:43:25.130Z,25.90
2018-07-28T23:45:53.280Z,25.90
2018-07-28T23:48:21.447Z,25.90
2018-07-28T23:50:49.612Z,25.90
2018-07-28T23:53:17.784Z,25.90
2018-07-28T23:55:45.940Z,25.90
2018-07-28T23:58:14.091Z,25.80
